createdAt,value
2018-01-25T00:01:39.785Z,88.65
2018-01-25T00:04:08.828Z,88.43
2018-01-25T00:06:37.188Z,88.04
2018-01-25T00:09:05.486Z,88.18
2018-01-25T00:11:33.852Z,88.19
2018-01-25T00:14:02.148Z,87.91
2018-01-25T00:16:30.456Z,87.81
2018-01-25T00:18:58.744Z,87.65
2018-01-25T00:21:27.082Z,87.46
2018-01-25T00:23:55.360Z,87.26
2018-01-25T00:26:23.656Z,86.97
2018-01-25T00:28:51.966Z,86.83
2018-01-25T00:31:20.275Z,86.85
2018-01-25T00:33:49.357Z,86.71
2018-01-25T00:36:17.638Z,86.42
2018-01-25T00:38:45.932Z,86.00
2018-01-25T00:41:15.018Z,85.98
2018-01-25T00:43:43.323Z,85.95
2018-01-25T00:46:12.379Z,85.95
2018-01-25T00:48:40.697Z,85.92
2018-01-25T00:51:09.770Z,85.87
2018-01-25T00:53:38.063Z,85.70
2018-01-25T00:56:06.368Z,85.56
2018-01-25T00:58:35.428Z,85.57
2018-01-25T01:01:03.714Z,85.48
2018-01-25T01:03:31.999Z,85.44
2018-01-25T01:06:00.309Z,85.29
2018-01-25T01:08:29.374Z,85.32
2018-01-25T01:10:57.683Z,85.33
2018-01-25T01:13:26.758Z,84.94
2018-01-25T01:15:55.043Z,84.97
2018-01-25T01:18:24.124Z,84.86
2018-01-25T01:20:52.429Z,84.96
2018-01-25T01:23:20.767Z,84.89
2018-01-25T01:25:49.325Z,84.85
2018-01-25T01:28:17.651Z,84.76
2018-01-25T01:30:45.969Z,84.89
2018-01-25T01:33:14.275Z,85.08
2018-01-25T01:35:42.585Z,85.11
2018-01-25T01:38:10.897Z,85.11
2018-01-25T01:40:39.334Z,85.07
2018-01-25T01:43:08.443Z,85.10
2018-01-25T01:45:37.587Z,85.14
2018-01-25T01:48:05.877Z,85.10
2018-01-25T01:50:34.201Z,85.12
2018-01-25T01:53:02.491Z,85.02
2018-01-25T01:55:30.793Z,84.98
2018-01-25T01:57:59.083Z,85.02
2018-01-25T02:00:27.403Z,85.06
2018-01-25T02:02:56.470Z,85.10
2018-01-25T02:05:24.789Z,85.00
2018-01-25T02:07:53.095Z,85.01
2018-01-25T02:10:21.387Z,85.01
2018-01-25T02:12:49.749Z,85.03
2018-01-25T02:15:18.045Z,84.95
2018-01-25T02:17:46.467Z,84.87
2018-01-25T02:20:14.769Z,84.96
2018-01-25T02:22:43.825Z,84.96
2018-01-25T02:25:12.115Z,84.92
2018-01-25T02:27:40.411Z,84.90
2018-01-25T02:30:08.695Z,84.94
2018-01-25T02:32:37.010Z,85.00
2018-01-25T02:35:05.482Z,85.00
2018-01-25T02:37:34.555Z,85.06
2018-01-25T02:40:02.849Z,85.15
2018-01-25T02:42:31.144Z,85.29
2018-01-25T02:45:00.262Z,85.20
2018-01-25T02:47:28.606Z,85.17
2018-01-25T02:49:56.892Z,85.29
2018-01-25T02:52:25.218Z,85.45
2018-01-25T02:54:53.591Z,85.47
2018-01-25T02:57:21.887Z,85.48
2018-01-25T02:59:50.163Z,85.28
2018-01-25T03:02:18.453Z,85.21
2018-01-25T03:04:46.757Z,85.07
2018-01-25T03:07:15.063Z,85.10
2018-01-25T03:09:44.135Z,85.07
2018-01-25T03:12:13.345Z,84.84
2018-01-25T03:14:41.641Z,84.67
2018-01-25T03:17:09.957Z,84.34
2018-01-25T03:19:38.255Z,84.30
2018-01-25T03:22:06.538Z,84.02
2018-01-25T03:24:34.857Z,83.98
2018-01-25T03:27:03.219Z,84.02
2018-01-25T03:29:31.519Z,83.86
2018-01-25T03:31:59.809Z,83.65
2018-01-25T03:34:28.203Z,83.54
2018-01-25T03:36:57.929Z,83.45
2018-01-25T03:39:27.018Z,83.13
2018-01-25T03:41:56.083Z,83.03
2018-01-25T03:44:24.400Z,83.01
2018-01-25T03:46:53.483Z,83.01
2018-01-25T03:49:22.653Z,82.91
2018-01-25T03:51:50.978Z,82.54
2018-01-25T03:54:19.321Z,82.42
2018-01-25T03:56:47.627Z,82.30
2018-01-25T03:59:15.943Z,82.43
2018-01-25T04:01:44.251Z,82.47
2018-01-25T04:04:12.541Z,82.52
2018-01-25T04:06:40.821Z,82.69
2018-01-25T04:09:09.159Z,82.73
2018-01-25T04:11:37.491Z,82.73
2018-01-25T04:14:05.779Z,82.75
2018-01-25T04:16:34.100Z,82.69
2018-01-25T04:19:03.235Z,82.78
2018-01-25T04:21:31.563Z,82.68
2018-01-25T04:23:59.909Z,82.74
2018-01-25T04:26:28.479Z,82.71
2018-01-25T04:28:56.798Z,82.67
2018-01-25T04:31:25.130Z,82.64
2018-01-25T04:33:53.453Z,82.62
2018-01-25T04:36:21.742Z,82.77
2018-01-25T04:38:50.056Z,82.75
2018-01-25T04:41:19.131Z,82.71
2018-01-25T04:43:47.448Z,82.60
2018-01-25T04:46:16.498Z,82.62
2018-01-25T04:48:44.787Z,82.72
2018-01-25T04:51:13.098Z,82.71
2018-01-25T04:53:42.150Z,82.29
2018-01-25T04:56:10.440Z,82.20
2018-01-25T04:58:38.762Z,82.21
2018-01-25T05:01:07.919Z,82.25
2018-01-25T05:03:36.212Z,82.27
2018-01-25T05:06:04.789Z,82.16
2018-01-25T05:08:33.090Z,82.23
2018-01-25T05:11:01.393Z,82.32
2018-01-25T05:13:30.446Z,82.38
2018-01-25T05:15:58.746Z,82.39
2018-01-25T05:18:27.041Z,82.39
2018-01-25T05:20:55.342Z,82.47
2018-01-25T05:23:24.467Z,82.56
2018-01-25T05:25:52.806Z,82.59
2018-01-25T05:28:21.104Z,82.55
2018-01-25T05:30:50.193Z,82.62
2018-01-25T05:33:18.487Z,82.70
2018-01-25T05:35:47.610Z,82.68
2018-01-25T05:38:15.896Z,82.72
2018-01-25T05:40:44.272Z,82.66
2018-01-25T05:43:12.576Z,82.79
2018-01-25T05:45:40.880Z,82.87
2018-01-25T05:48:09.252Z,82.94
2018-01-25T05:50:37.560Z,82.87
2018-01-25T05:53:05.950Z,83.01
2018-01-25T05:55:34.256Z,83.00
2018-01-25T05:58:02.569Z,83.11
2018-01-25T06:00:30.870Z,83.20
2018-01-25T06:02:59.176Z,83.14
2018-01-25T06:05:28.309Z,83.15
2018-01-25T06:07:56.607Z,83.11
2018-01-25T06:10:24.985Z,83.06
2018-01-25T06:12:53.285Z,82.92
2018-01-25T06:15:21.589Z,82.88
2018-01-25T06:17:49.893Z,82.86
2018-01-25T06:20:19.018Z,82.85
2018-01-25T06:22:47.326Z,82.78
2018-01-25T06:25:15.623Z,82.80
2018-01-25T06:27:43.937Z,82.96
2018-01-25T06:30:13.003Z,82.80
2018-01-25T06:32:41.295Z,82.70
2018-01-25T06:35:09.680Z,82.63
2018-01-25T06:37:38.078Z,82.63
2018-01-25T06:40:06.379Z,82.64
2018-01-25T06:42:35.444Z,82.66
2018-01-25T06:45:03.760Z,82.76
2018-01-25T06:47:32.050Z,82.70
2018-01-25T06:50:00.351Z,82.72
2018-01-25T06:52:28.674Z,82.82
2018-01-25T06:54:57.055Z,82.75
2018-01-25T06:57:25.348Z,82.78
2018-01-25T06:59:53.669Z,82.79
2018-01-25T07:02:21.984Z,82.66
2018-01-25T07:04:51.055Z,82.58
2018-01-25T07:07:19.450Z,82.55
2018-01-25T07:09:48.389Z,82.62
2018-01-25T07:12:16.705Z,82.61
2018-01-25T07:14:45.068Z,82.68
2018-01-25T07:17:13.366Z,82.64
2018-01-25T07:19:41.676Z,82.54
2018-01-25T07:22:09.976Z,82.56
2018-01-25T07:24:38.310Z,82.59
2018-01-25T07:27:06.620Z,82.51
2018-01-25T07:29:34.903Z,82.39
2018-01-25T07:32:03.270Z,82.40
2018-01-25T07:34:32.337Z,82.37
2018-01-25T07:37:01.395Z,82.34
2018-01-25T07:39:29.737Z,82.22
2018-01-25T07:41:58.044Z,82.23
2018-01-25T07:44:26.506Z,82.41
2018-01-25T07:46:55.048Z,82.43
2018-01-25T07:49:25.308Z,82.53
2018-01-25T07:51:53.640Z,82.45
2018-01-25T07:54:23.813Z,82.43
2018-01-25T07:56:52.464Z,82.40
2018-01-25T07:59:20.774Z,82.28
2018-01-25T08:01:49.844Z,82.13
2018-01-25T08:04:18.162Z,82.41
2018-01-25T08:06:46.466Z,82.60
2018-01-25T08:09:14.842Z,82.62
2018-01-25T08:11:43.166Z,82.29
2018-01-25T08:14:11.464Z,82.12
2018-01-25T08:16:45.220Z,82.24
2018-01-25T08:19:13.554Z,82.06
2018-01-25T08:21:42.762Z,82.00
2018-01-25T08:24:11.824Z,82.03
2018-01-25T08:26:40.157Z,82.30
2018-01-25T08:29:09.953Z,82.66
2018-01-25T08:31:39.060Z,82.77
2018-01-25T08:34:08.117Z,82.77
2018-01-25T08:36:36.408Z,82.59
2018-01-25T08:39:05.404Z,82.34
2018-01-25T08:41:33.742Z,82.16
2018-01-25T08:44:02.044Z,81.95
2018-01-25T08:46:30.337Z,81.69
2018-01-25T08:48:58.656Z,81.67
2018-01-25T08:51:26.968Z,81.67
2018-01-25T08:53:55.264Z,81.67
2018-01-25T08:56:23.557Z,81.45
2018-01-25T08:58:51.867Z,81.68
2018-01-25T09:01:20.172Z,81.56
2018-01-25T09:03:49.223Z,81.55
2018-01-25T09:06:17.585Z,81.48
2018-01-25T09:08:46.389Z,81.42
2018-01-25T09:11:14.717Z,81.18
2018-01-25T09:13:43.030Z,80.86
2018-01-25T09:16:11.341Z,80.59
2018-01-25T09:18:39.650Z,80.51
2018-01-25T09:21:07.942Z,80.72
2018-01-25T09:23:36.272Z,80.67
2018-01-25T09:26:04.572Z,80.87
2018-01-25T09:28:32.880Z,80.53
2018-01-25T09:31:01.192Z,80.40
2018-01-25T09:33:29.512Z,80.33
2018-01-25T09:35:57.826Z,80.42
2018-01-25T09:38:26.126Z,80.38
2018-01-25T09:40:55.245Z,80.05
2018-01-25T09:43:23.640Z,79.92
2018-01-25T09:45:51.953Z,79.83
2018-01-25T09:48:20.265Z,79.45
2018-01-25T09:50:49.364Z,79.42
2018-01-25T09:53:18.444Z,79.16
2018-01-25T09:55:46.760Z,78.97
2018-01-25T09:58:15.832Z,78.85
2018-01-25T10:00:44.147Z,79.02
2018-01-25T10:03:12.466Z,78.79
2018-01-25T10:05:40.799Z,78.63
2018-01-25T10:08:09.870Z,78.51
2018-01-25T10:10:38.184Z,78.42
2018-01-25T10:13:07.294Z,78.40
2018-01-25T10:15:35.643Z,78.22
2018-01-25T10:18:03.956Z,78.07
2018-01-25T10:20:32.247Z,77.96
2018-01-25T10:23:00.570Z,77.80
2018-01-25T10:25:28.870Z,77.59
2018-01-25T10:27:57.214Z,77.79
2018-01-25T10:30:25.536Z,77.23
2018-01-25T10:32:53.847Z,77.08
2018-01-25T10:35:22.140Z,76.70
2018-01-25T10:37:50.430Z,76.78
2018-01-25T10:40:18.742Z,76.75
2018-01-25T10:42:47.054Z,76.22
2018-01-25T10:45:16.116Z,76.20
2018-01-25T10:47:44.460Z,75.76
2018-01-25T10:50:12.778Z,75.77
2018-01-25T10:52:41.073Z,75.77
2018-01-25T10:55:09.502Z,75.73
2018-01-25T10:57:37.832Z,75.59
2018-01-25T11:00:06.226Z,75.17
2018-01-25T11:02:34.574Z,75.03
2018-01-25T11:05:03.190Z,75.33
2018-01-25T11:07:31.521Z,75.37
2018-01-25T11:09:59.818Z,75.00
2018-01-25T11:12:28.176Z,74.92
2018-01-25T11:14:56.502Z,75.32
2018-01-25T11:17:24.915Z,75.03
2018-01-25T11:19:53.262Z,74.53
2018-01-25T11:22:21.556Z,74.31
2018-01-25T11:24:49.866Z,74.26
2018-01-25T11:27:18.180Z,73.87
2018-01-25T11:29:46.504Z,74.21
2018-01-25T11:32:14.826Z,73.94
2018-01-25T11:34:43.933Z,74.14
2018-01-25T11:37:12.229Z,73.75
2018-01-25T11:39:40.557Z,74.07
2018-01-25T11:42:08.855Z,73.53
2018-01-25T11:44:37.318Z,73.55
2018-01-25T11:47:05.617Z,72.88
2018-01-25T11:49:33.963Z,72.67
2018-01-25T11:52:02.286Z,72.70
2018-01-25T11:54:30.614Z,72.42
2018-01-25T11:56:58.905Z,72.27
2018-01-25T11:59:27.236Z,72.47
2018-01-25T12:01:56.309Z,72.11
2018-01-25T12:04:25.371Z,71.24
2018-01-25T12:06:53.679Z,70.81
2018-01-25T12:09:22.777Z,70.35
2018-01-25T12:11:51.074Z,70.42
2018-01-25T12:14:19.380Z,70.35
2018-01-25T12:16:48.464Z,70.12
2018-01-25T12:19:16.757Z,70.24
2018-01-25T12:21:45.826Z,69.90
2018-01-25T12:24:14.138Z,69.78
2018-01-25T12:26:43.219Z,69.59
2018-01-25T12:29:11.541Z,69.50
2018-01-25T12:31:39.858Z,69.32
2018-01-25T12:34:08.160Z,69.31
2018-01-25T12:36:36.461Z,69.06
2018-01-25T12:39:04.765Z,69.29
2018-01-25T12:41:33.168Z,69.41
2018-01-25T12:44:01.475Z,69.20
2018-01-25T12:46:29.775Z,68.97
2018-01-25T12:48:58.077Z,68.95
2018-01-25T12:51:27.147Z,69.04
2018-01-25T12:53:55.496Z,68.71
2018-01-25T12:56:23.795Z,68.93
2018-01-25T12:58:52.182Z,69.51
2018-01-25T13:01:20.481Z,69.18
2018-01-25T13:03:48.803Z,69.03
2018-01-25T13:06:17.101Z,68.92
2018-01-25T13:08:45.437Z,69.10
2018-01-25T13:11:13.737Z,69.62
2018-01-25T13:13:42.849Z,69.56
2018-01-25T13:16:11.895Z,69.36
2018-01-25T13:18:40.208Z,69.68
2018-01-25T13:21:09.276Z,69.59
2018-01-25T13:23:37.595Z,69.91
2018-01-25T13:26:06.707Z,69.93
2018-01-25T13:28:35.049Z,69.90
2018-01-25T13:31:03.360Z,70.09
2018-01-25T13:33:37.893Z,70.22
2018-01-25T13:36:06.217Z,70.00
2018-01-25T13:38:34.550Z,70.04
2018-01-25T13:41:03.613Z,69.91
2018-01-25T13:43:32.254Z,69.69
2018-01-25T13:46:00.557Z,69.78
2018-01-25T13:48:28.864Z,69.65
2018-01-25T13:50:57.191Z,69.74
2018-01-25T13:53:25.502Z,70.04
2018-01-25T13:55:53.799Z,70.15
2018-01-25T13:58:22.153Z,70.37
2018-01-25T14:00:50.484Z,70.41
2018-01-25T14:03:18.881Z,70.30
2018-01-25T14:05:47.971Z,70.46
2018-01-25T14:08:16.272Z,70.21
2018-01-25T14:10:45.452Z,70.39
2018-01-25T14:13:13.773Z,70.21
2018-01-25T14:15:42.071Z,70.72
2018-01-25T14:18:10.375Z,70.88
2018-01-25T14:20:38.703Z,70.88
2018-01-25T14:23:07.025Z,71.02
2018-01-25T14:25:35.325Z,71.16
2018-01-25T14:28:03.639Z,71.20
2018-01-25T14:30:32.715Z,71.51
2018-01-25T14:33:01.031Z,71.66
2018-01-25T14:35:29.369Z,71.62
2018-01-25T14:37:58.349Z,71.48
2018-01-25T14:40:26.669Z,71.48
2018-01-25T14:42:55.008Z,71.72
2018-01-25T14:45:23.313Z,71.66
2018-01-25T14:47:51.641Z,71.49
2018-01-25T14:50:19.963Z,71.53
2018-01-25T14:52:48.267Z,71.60
2018-01-25T14:55:16.590Z,71.68
2018-01-25T14:57:44.893Z,71.75
2018-01-25T15:00:13.209Z,71.99
2018-01-25T15:02:41.529Z,72.17
2018-01-25T15:05:09.861Z,72.25
2018-01-25T15:07:38.163Z,72.34
2018-01-25T15:10:06.478Z,72.46
2018-01-25T15:12:34.797Z,72.56
2018-01-25T15:15:03.103Z,73.30
2018-01-25T15:17:31.434Z,73.21
2018-01-25T15:19:59.763Z,73.15
2018-01-25T15:22:28.069Z,73.13
2018-01-25T15:25:02.737Z,73.31
2018-01-25T15:27:34.016Z,73.26
2018-01-25T15:30:02.581Z,73.34
2018-01-25T15:32:30.878Z,73.42
2018-01-25T15:34:59.175Z,73.58
2018-01-25T15:37:27.478Z,73.67
2018-01-25T15:39:56.542Z,73.78
2018-01-25T15:42:24.856Z,73.88
2018-01-25T15:44:53.915Z,74.12
2018-01-25T15:47:22.230Z,74.02
2018-01-25T15:49:51.465Z,74.23
2018-01-25T15:52:19.781Z,74.25
2018-01-25T15:54:48.089Z,74.34
2018-01-25T15:57:16.611Z,74.37
2018-01-25T15:59:44.927Z,74.66
2018-01-25T16:02:13.275Z,75.03
2018-01-25T16:04:41.596Z,75.68
2018-01-25T16:07:10.011Z,75.79
2018-01-25T16:09:39.201Z,75.54
2018-01-25T16:12:07.508Z,75.19
2018-01-25T16:14:36.605Z,75.16
2018-01-25T16:17:05.749Z,75.05
2018-01-25T16:19:34.107Z,74.97
2018-01-25T16:22:02.436Z,75.09
2018-01-25T16:24:30.734Z,75.17
2018-01-25T16:26:59.081Z,75.34
2018-01-25T16:29:27.387Z,75.40
2018-01-25T16:31:55.711Z,75.65
2018-01-25T16:34:24.021Z,75.59
2018-01-25T16:36:52.319Z,75.60
2018-01-25T16:39:20.633Z,75.62
2018-01-25T16:41:49.706Z,75.70
2018-01-25T16:44:18.005Z,75.73
2018-01-25T16:46:46.314Z,75.64
2018-01-25T16:49:14.723Z,75.65
2018-01-25T16:51:43.772Z,75.67
2018-01-25T16:54:13.183Z,75.81
2018-01-25T16:56:42.274Z,75.82
2018-01-25T16:59:11.371Z,75.83
2018-01-25T17:01:39.673Z,75.98
2018-01-25T17:04:09.608Z,76.00
2018-01-25T17:06:37.927Z,76.04
2018-01-25T17:09:06.227Z,76.03
2018-01-25T17:11:34.575Z,75.99
2018-01-25T17:14:02.937Z,76.05
2018-01-25T17:16:31.242Z,76.00
2018-01-25T17:18:59.556Z,76.33
2018-01-25T17:21:27.899Z,76.58
2018-01-25T17:23:56.236Z,76.56
2018-01-25T17:26:25.914Z,76.35
2018-01-25T17:28:54.242Z,76.32
2018-01-25T17:31:23.320Z,76.36
2018-01-25T17:33:51.635Z,76.44
2018-01-25T17:36:19.987Z,76.79
2018-01-25T17:38:48.305Z,76.83
2018-01-25T17:41:17.078Z,76.80
2018-01-25T17:43:46.168Z,76.95
2018-01-25T17:46:15.257Z,77.10
2018-01-25T17:48:43.584Z,76.96
2018-01-25T17:51:11.899Z,77.23
2018-01-25T17:53:40.202Z,77.19
2018-01-25T17:56:09.330Z,77.23
2018-01-25T17:58:37.711Z,77.32
2018-01-25T18:01:06.023Z,77.41
2018-01-25T18:03:34.342Z,77.28
2018-01-25T18:06:02.640Z,77.27
2018-01-25T18:08:31.724Z,77.33
2018-01-25T18:11:00.076Z,77.39
2018-01-25T18:13:28.436Z,77.38
2018-01-25T18:15:56.917Z,77.27
2018-01-25T18:18:25.215Z,77.40
2018-01-25T18:20:54.148Z,77.30
2018-01-25T18:23:22.498Z,77.28
2018-01-25T18:25:51.894Z,77.24
2018-01-25T18:28:20.269Z,77.21
2018-01-25T18:30:48.607Z,77.12
2018-01-25T18:33:17.007Z,77.17
2018-01-25T18:35:45.387Z,77.35
2018-01-25T18:38:14.478Z,77.57
2018-01-25T18:40:42.824Z,77.57
2018-01-25T18:43:11.972Z,77.56
2018-01-25T18:45:41.072Z,77.48
2018-01-25T18:48:10.155Z,77.39
2018-01-25T18:50:38.475Z,77.39
2018-01-25T18:53:06.838Z,77.44
2018-01-25T18:55:35.925Z,77.40
2018-01-25T18:58:04.232Z,77.50
2018-01-25T19:00:32.577Z,77.55
2018-01-25T19:03:00.912Z,77.52
2018-01-25T19:05:29.214Z,77.54
2018-01-25T19:07:58.290Z,77.54
2018-01-25T19:10:26.650Z,77.60
2018-01-25T19:12:55.719Z,77.71
2018-01-25T19:15:24.022Z,77.74
2018-01-25T19:17:53.126Z,77.59
2018-01-25T19:20:21.464Z,77.57
2018-01-25T19:22:49.879Z,77.40
2018-01-25T19:25:18.173Z,77.26
2018-01-25T19:27:47.280Z,77.18
2018-01-25T19:30:16.390Z,77.33
2018-01-25T19:32:44.685Z,76.90
2018-01-25T19:35:13.032Z,76.74
2018-01-25T19:37:42.160Z,76.80
2018-01-25T19:40:10.505Z,77.01
2018-01-25T19:42:38.850Z,76.74
2018-01-25T19:45:07.191Z,76.45
2018-01-25T19:47:35.531Z,76.26
2018-01-25T19:50:04.711Z,76.25
2018-01-25T19:52:33.109Z,75.99
2018-01-25T19:55:01.420Z,75.74
2018-01-25T19:57:30.499Z,75.58
2018-01-25T19:59:59.014Z,75.53
2018-01-25T20:02:27.355Z,75.49
2018-01-25T20:04:55.679Z,75.56
2018-01-25T20:07:24.754Z,75.55
2018-01-25T20:09:53.088Z,75.50
2018-01-25T20:12:21.432Z,75.50
2018-01-25T20:14:50.770Z,75.80
2018-01-25T20:17:19.230Z,75.66
2018-01-25T20:19:49.308Z,75.52
2018-01-25T20:22:18.442Z,75.41
2018-01-25T20:24:46.808Z,75.56
2018-01-25T20:27:15.168Z,75.39
2018-01-25T20:29:43.493Z,75.33
2018-01-25T20:32:12.572Z,75.34
2018-01-25T20:34:41.143Z,75.47
2018-01-25T20:37:10.415Z,75.55
2018-01-25T20:39:38.724Z,75.54
2018-01-25T20:42:07.072Z,75.59
2018-01-25T20:44:36.174Z,75.72
2018-01-25T20:47:04.469Z,76.17
2018-01-25T20:49:33.358Z,76.19
2018-01-25T20:52:01.691Z,76.17
2018-01-25T20:54:30.010Z,76.12
2018-01-25T20:56:58.588Z,76.13
2018-01-25T20:59:27.206Z,76.18
2018-01-25T21:01:55.610Z,76.37
2018-01-25T21:04:23.946Z,76.49
2018-01-25T21:06:53.038Z,76.42
2018-01-25T21:09:22.308Z,76.56
2018-01-25T21:11:50.672Z,76.88
2018-01-25T21:14:19.038Z,76.94
2018-01-25T21:16:47.383Z,77.01
2018-01-25T21:19:15.716Z,77.07
2018-01-25T21:21:44.026Z,77.13
2018-01-25T21:24:12.333Z,77.27
2018-01-25T21:26:41.431Z,77.36
2018-01-25T21:29:10.547Z,77.41
2018-01-25T21:31:38.841Z,77.68
2018-01-25T21:34:07.148Z,77.80
2018-01-25T21:36:35.446Z,77.89
2018-01-25T21:39:03.738Z,77.91
2018-01-25T21:41:32.072Z,77.82
2018-01-25T21:44:00.404Z,77.83
2018-01-25T21:46:28.744Z,78.23
2018-01-25T21:48:57.064Z,78.21
2018-01-25T21:51:25.364Z,78.30
2018-01-25T21:53:54.493Z,78.33
2018-01-25T21:56:22.806Z,78.34
2018-01-25T21:58:51.124Z,78.41
2018-01-25T22:01:19.452Z,78.50
2018-01-25T22:03:47.793Z,78.61
2018-01-25T22:06:16.874Z,78.56
2018-01-25T22:08:45.166Z,78.63
2018-01-25T22:11:13.468Z,78.65
2018-01-25T22:13:41.780Z,78.68
2018-01-25T22:16:10.094Z,78.79
2018-01-25T22:18:39.042Z,78.88
2018-01-25T22:21:08.127Z,78.86
2018-01-25T22:23:36.827Z,78.98
2018-01-25T22:26:05.113Z,78.88
2018-01-25T22:28:33.419Z,78.85
2018-01-25T22:31:01.721Z,78.81
2018-01-25T22:33:30.035Z,78.80
2018-01-25T22:35:59.192Z,78.72
2018-01-25T22:38:27.544Z,78.71
2018-01-25T22:40:55.882Z,78.69
2018-01-25T22:43:24.312Z,78.74
2018-01-25T22:45:52.621Z,78.73
2018-01-25T22:48:20.965Z,78.76
2018-01-25T22:50:50.058Z,78.80
2018-01-25T22:53:18.392Z,78.99
2018-01-25T22:55:46.720Z,79.01
2018-01-25T22:58:15.073Z,79.14
2018-01-25T23:00:43.402Z,79.10
2018-01-25T23:03:11.702Z,79.18
2018-01-25T23:05:40.054Z,79.18
2018-01-25T23:08:08.377Z,79.07
2018-01-25T23:10:36.756Z,79.09
2018-01-25T23:13:05.073Z,79.20
2018-01-25T23:15:34.193Z,79.29
2018-01-25T23:18:02.529Z,79.36
2018-01-25T23:20:30.835Z,79.43
2018-01-25T23:22:59.159Z,79.64
2018-01-25T23:25:27.623Z,79.59
2018-01-25T23:27:56.679Z,79.59
2018-01-25T23:30:25.760Z,79.55
2018-01-25T23:32:54.087Z,79.57
2018-01-25T23:35:23.218Z,79.58
2018-01-25T23:37:51.525Z,79.63
2018-01-25T23:40:19.886Z,79.74
2018-01-25T23:42:48.213Z,79.88
2018-01-25T23:45:16.523Z,79.99
2018-01-25T23:47:45.630Z,80.05
2018-01-25T23:50:14.017Z,80.10
2018-01-25T23:52:42.609Z,80.12
2018-01-25T23:55:10.926Z,80.20
2018-01-25T23:57:40.097Z,80.37
